Time;durP1;ratioP1;P1;durP2;ratioP2;P2;SDS_P1;SDS_P2;PMS_P1;PMS_P2;Temp;Humidity;BMP_temperature;BMP_pressure;BME280_temperature;BME280_humidity;BME280_pressure;Samples;Min_cycle;Max_cycle;Signal;HPM_P1;HPM_P2
2021/05/08 00:00:31;;;;;;;7.63;6.80;;;8.90;91.00;;;;;;5005542;28;20177;-78
2021/05/08 00:02:57;;;;;;;9.47;7.20;;;8.90;91.20;;;;;;5004487;28;20175;-78
2021/05/08 00:05:23;;;;;;;9.77;7.40;;;8.90;91.30;;;;;;4985788;28;20187;-79
2021/05/08 00:07:49;;;;;;;7.63;6.83;;;8.80;91.40;;;;;;5004494;28;20178;-79
2021/05/08 00:10:16;;;;;;;7.00;6.37;;;8.80;91.80;;;;;;5002921;28;21183;-79
2021/05/08 00:12:43;;;;;;;8.27;7.15;;;8.80;91.80;;;;;;4983539;28;20620;-79
2021/05/08 00:15:11;;;;;;;6.53;5.93;;;8.70;91.90;;;;;;4988190;28;20341;-79
2021/05/08 00:17:37;;;;;;;10.13;6.63;;;8.70;91.90;;;;;;5005689;28;20171;-79
2021/05/08 00:20:10;;;;;;;7.18;6.50;;;8.70;92.00;;;;;;5004374;28;20199;-79
2021/05/08 00:22:37;;;;;;;6.18;5.57;;;8.70;92.70;;;;;;5002493;28;20540;-80
2021/05/08 00:25:08;;;;;;;8.25;7.22;;;8.70;92.30;;;;;;5000933;28;20257;-78
2021/05/08 00:27:34;;;;;;;5.93;5.35;;;8.70;92.60;;;;;;4996885;28;20174;-78
2021/05/08 00:30:00;;;;;;;6.95;6.25;;;8.60;92.50;;;;;;4997253;28;20225;-78
2021/05/08 00:32:27;;;;;;;7.15;6.20;;;8.60;92.70;;;;;;4996919;28;20546;-78
2021/05/08 00:34:52;;;;;;;6.75;6.05;;;8.60;92.90;;;;;;4984041;28;20221;-78
2021/05/08 00:37:18;;;;;;;8.90;7.20;;;8.60;93.20;;;;;;4996091;28;20171;-78
2021/05/08 00:39:44;;;;;;;7.53;6.80;;;8.60;93.20;;;;;;4995872;28;20226;-78
2021/05/08 00:42:10;;;;;;;7.07;6.38;;;8.60;93.40;;;;;;4979970;28;20580;-78
2021/05/08 00:44:37;;;;;;;6.75;6.13;;;8.50;93.60;;;;;;4964218;28;20562;-79
2021/05/08 00:47:03;;;;;;;7.63;6.85;;;8.60;93.80;;;;;;4978609;28;20242;-79
2021/05/08 00:49:31;;;;;;;7.60;6.90;;;8.50;93.90;;;;;;4999655;28;20163;-79
2021/05/08 00:52:01;;;;;;;7.68;6.88;;;8.50;94.00;;;;;;5000305;28;20238;-79
2021/05/08 00:54:27;;;;;;;7.28;6.57;;;8.50;94.10;;;;;;5000756;28;20190;-80
2021/05/08 00:56:53;;;;;;;7.97;7.28;;;8.50;94.30;;;;;;5000197;28;20235;-79
2021/05/08 00:59:20;;;;;;;7.83;7.13;;;8.40;94.30;;;;;;5018065;28;20704;-80
2021/05/08 01:01:46;;;;;;;7.35;6.75;;;8.40;94.30;;;;;;5015480;28;20585;-80
2021/05/08 01:04:16;;;;;;;7.75;7.05;;;8.40;94.50;;;;;;4996951;28;20191;-79
2021/05/08 01:06:45;;;;;;;7.35;6.65;;;8.30;94.70;;;;;;4992529;28;20183;-80
2021/05/08 01:09:11;;;;;;;7.90;7.10;;;8.30;94.80;;;;;;5004580;28;20178;-79
2021/05/08 01:11:38;;;;;;;8.00;6.83;;;8.30;94.60;;;;;;4977142;28;20238;-79
2021/05/08 01:14:05;;;;;;;7.80;7.10;;;8.20;94.60;;;;;;4999179;28;20609;-79
2021/05/08 01:16:31;;;;;;;7.00;6.28;;;8.20;94.60;;;;;;4982920;28;20171;-79
2021/05/08 01:19:01;;;;;;;7.70;6.93;;;8.20;95.00;;;;;;4982662;28;20207;-79
2021/05/08 01:21:30;;;;;;;8.18;6.50;;;8.20;94.90;;;;;;4997575;28;20160;-82
2021/05/08 01:23:56;;;;;;;9.10;7.32;;;8.20;94.80;;;;;;4960760;28;20699;-82
2021/05/08 01:26:22;;;;;;;7.47;6.70;;;8.10;94.90;;;;;;4960357;28;20175;-82
2021/05/08 01:28:49;;;;;;;8.63;7.82;;;8.10;95.00;;;;;;4976269;28;20677;-83
2021/05/08 01:31:15;;;;;;;6.82;6.13;;;8.10;95.60;;;;;;4944125;28;20269;-83
2021/05/08 01:33:43;;;;;;;7.20;6.50;;;8.10;95.60;;;;;;4975935;28;20226;-82
2021/05/08 01:36:10;;;;;;;7.95;7.15;;;8.10;95.50;;;;;;4993380;28;20174;-82
2021/05/08 01:38:36;;;;;;;7.53;6.80;;;8.10;96.20;;;;;;4975568;28;20175;-82
2021/05/08 01:41:07;;;;;;;6.50;5.90;;;8.00;95.70;;;;;;4993318;28;20167;-82
2021/05/08 01:43:33;;;;;;;7.85;6.65;;;8.00;95.80;;;;;;4993119;28;20167;-82
2021/05/08 01:45:59;;;;;;;7.45;6.75;;;8.00;95.70;;;;;;4975795;28;20187;-82
2021/05/08 01:48:26;;;;;;;6.80;6.20;;;8.00;96.00;;;;;;4980907;28;20266;-82
2021/05/08 01:50:52;;;;;;;6.78;6.18;;;8.00;96.10;;;;;;4975686;28;20978;-82
2021/05/08 01:53:19;;;;;;;7.97;6.75;;;8.00;96.30;;;;;;4975783;28;20185;-82
2021/05/08 01:55:46;;;;;;;7.18;6.47;;;8.00;96.40;;;;;;4975856;28;20187;-81
2021/05/08 01:58:18;;;;;;;7.40;6.60;;;8.00;96.60;;;;;;4975659;28;20187;-82
2021/05/08 02:00:50;;;;;;;7.63;6.80;;;8.00;96.70;;;;;;4976297;28;20670;-82
2021/05/08 02:03:16;;;;;;;7.93;7.22;;;8.00;96.70;;;;;;4959388;28;20190;-82
2021/05/08 02:05:45;;;;;;;7.32;6.63;;;8.00;96.80;;;;;;4975353;28;20187;-82
2021/05/08 02:08:37;;;;;;;6.55;5.78;;;8.00;96.90;;;;;;4959475;28;20674;-82
2021/05/08 02:11:07;;;;;;;6.97;6.28;;;7.90;96.90;;;;;;4975070;28;20187;-81
2021/05/08 02:13:32;;;;;;;5.50;5.00;;;7.90;97.30;;;;;;4992675;28;20174;-81
2021/05/08 02:15:59;;;;;;;7.05;6.28;;;7.80;97.20;;;;;;4992591;28;20569;-83
2021/05/08 02:18:25;;;;;;;6.20;5.65;;;7.80;97.40;;;;;;4974745;28;20178;-82
2021/05/08 02:20:51;;;;;;;7.25;6.55;;;7.80;97.40;;;;;;4960978;28;20218;-82
2021/05/08 02:23:19;;;;;;;6.63;6.03;;;7.70;98.20;;;;;;4958791;28;20179;-82
2021/05/08 02:25:49;;;;;;;8.93;6.15;;;7.70;98.70;;;;;;4979974;28;20326;-81
2021/05/08 02:28:16;;;;;;;8.25;5.40;;;7.70;98.30;;;;;;4974843;28;20543;-81
2021/05/08 02:30:43;;;;;;;5.30;4.80;;;7.70;98.80;;;;;;4992621;28;20178;-81
2021/05/08 02:33:10;;;;;;;6.55;5.95;;;7.60;99.00;;;;;;4974835;28;20635;-81
2021/05/08 02:35:37;;;;;;;6.13;5.60;;;7.60;98.80;;;;;;4974945;28;20206;-81
2021/05/08 02:38:05;;;;;;;6.05;5.45;;;7.50;99.30;;;;;;4974408;28;20180;-81
2021/05/08 02:40:36;;;;;;;5.63;4.70;;;7.50;99.10;;;;;;4976663;28;20590;-81
2021/05/08 02:43:04;;;;;;;6.63;5.20;;;7.50;99.90;;;;;;4958806;28;20203;-81
2021/05/08 02:45:30;;;;;;;4.97;4.47;;;7.40;99.90;;;;;;4958686;28;20187;-81
2021/05/08 02:47:56;;;;;;;4.55;4.15;;;7.40;99.90;;;;;;4942192;28;20199;-81
2021/05/08 02:50:24;;;;;;;4.82;4.40;;;7.40;99.90;;;;;;4974761;28;20175;-81
2021/05/08 02:52:52;;;;;;;7.60;4.53;;;7.30;99.90;;;;;;4974915;28;20171;-81
2021/05/08 02:55:18;;;;;;;4.50;3.90;;;7.30;99.60;;;;;;4975277;28;20698;-81
2021/05/08 02:57:44;;;;;;;4.88;4.38;;;7.30;99.90;;;;;;4974681;28;20636;-81
2021/05/08 03:00:16;;;;;;;4.93;3.72;;;7.30;99.90;;;;;;4975268;28;20198;-81
2021/05/08 03:02:43;;;;;;;4.13;3.72;;;7.20;99.90;;;;;;4951423;28;20201;-81
2021/05/08 03:05:09;;;;;;;4.47;4.07;;;7.20;99.90;;;;;;4994268;28;20202;-81
2021/05/08 03:07:36;;;;;;;4.30;3.97;;;7.20;99.90;;;;;;4976280;28;20264;-81
2021/05/08 03:10:04;;;;;;;3.90;3.60;;;7.20;99.90;;;;;;4993325;28;20536;-81
2021/05/08 03:12:30;;;;;;;4.53;4.10;;;7.10;99.90;;;;;;4963192;28;20659;-81
2021/05/08 03:14:56;;;;;;;5.60;5.10;;;7.10;99.90;;;;;;4980033;28;20269;-81
2021/05/08 03:17:22;;;;;;;4.67;4.30;;;7.10;99.90;;;;;;4984998;28;20178;-81
2021/05/08 03:19:52;;;;;;;4.85;4.45;;;7.00;99.90;;;;;;5018195;28;20233;-81
2021/05/08 03:22:18;;;;;;;4.53;4.13;;;7.00;99.90;;;;;;5001694;28;20174;-81
2021/05/08 03:24:44;;;;;;;5.75;5.25;;;7.00;99.90;;;;;;4985429;28;20596;-80
2021/05/08 03:27:10;;;;;;;4.43;3.83;;;7.00;99.90;;;;;;4981679;28;20166;-81
2021/05/08 03:29:39;;;;;;;4.75;4.40;;;7.00;99.90;;;;;;4998204;28;20167;-81
2021/05/08 03:32:05;;;;;;;5.85;5.30;;;7.00;99.90;;;;;;5015739;28;20208;-81
2021/05/08 03:34:31;;;;;;;5.20;4.80;;;6.90;99.90;;;;;;5015510;28;20217;-81
2021/05/08 03:36:57;;;;;;;5.38;4.88;;;6.90;99.90;;;;;;4997647;28;20935;-81
2021/05/08 03:39:25;;;;;;;6.25;5.05;;;6.90;99.90;;;;;;5003121;28;20202;-81
2021/05/08 03:41:51;;;;;;;4.87;4.47;;;6.90;99.90;;;;;;4983088;28;20550;-81
2021/05/08 03:44:17;;;;;;;6.15;5.65;;;6.90;99.90;;;;;;4998071;28;20193;-81
2021/05/08 03:46:43;;;;;;;6.90;6.30;;;6.90;99.90;;;;;;5014952;28;20540;-82
2021/05/08 03:49:08;;;;;;;6.10;5.60;;;6.90;99.90;;;;;;4997323;28;20171;-81
2021/05/08 03:51:34;;;;;;;5.90;5.40;;;6.90;99.90;;;;;;4997214;28;20178;-81
2021/05/08 03:54:00;;;;;;;5.90;5.30;;;6.90;99.90;;;;;;5016410;28;20253;-81
2021/05/08 03:56:26;;;;;;;6.57;5.97;;;6.80;99.90;;;;;;5000440;28;20305;-81
2021/05/08 03:58:52;;;;;;;6.40;5.87;;;6.80;99.90;;;;;;5019456;28;20234;-81
2021/05/08 04:01:18;;;;;;;6.67;6.07;;;6.90;99.90;;;;;;5020096;28;20171;-81
2021/05/08 04:03:44;;;;;;;5.80;5.30;;;6.80;99.90;;;;;;5002214;28;20223;-81
2021/05/08 04:06:09;;;;;;;5.23;4.70;;;6.80;99.90;;;;;;5002788;28;20660;-81
2021/05/08 04:08:35;;;;;;;7.07;6.47;;;6.80;99.90;;;;;;4987578;28;20253;-80
2021/05/08 04:11:01;;;;;;;4.73;4.33;;;6.80;99.90;;;;;;5019527;28;20170;-82
2021/05/08 04:13:27;;;;;;;6.20;5.70;;;6.80;99.90;;;;;;5007139;28;20589;-82
2021/05/08 04:15:52;;;;;;;5.60;5.10;;;6.80;99.90;;;;;;5005809;28;20386;-82
2021/05/08 04:18:19;;;;;;;8.43;4.93;;;6.80;99.90;;;;;;5027655;28;20170;-82
2021/05/08 04:20:48;;;;;;;5.40;4.90;;;6.80;99.90;;;;;;5029573;28;20617;-82
2021/05/08 04:23:14;;;;;;;5.50;5.00;;;6.80;99.90;;;;;;5003085;28;20170;-82
2021/05/08 04:25:40;;;;;;;6.15;4.13;;;6.80;99.90;;;;;;5019448;28;20216;-81
2021/05/08 04:28:12;;;;;;;5.07;4.23;;;6.80;99.90;;;;;;5014013;28;20166;-82
2021/05/08 04:30:38;;;;;;;4.95;4.50;;;6.80;99.90;;;;;;5014067;28;20175;-82
2021/05/08 04:33:04;;;;;;;5.20;4.67;;;6.90;99.90;;;;;;5014178;28;20223;-82
2021/05/08 04:35:30;;;;;;;5.40;4.93;;;6.80;99.90;;;;;;4996368;28;20605;-82
2021/05/08 04:38:01;;;;;;;5.20;4.70;;;6.90;99.90;;;;;;4996989;28;20174;-82
2021/05/08 04:40:27;;;;;;;5.13;4.10;;;6.90;99.90;;;;;;5015216;28;20210;-82
2021/05/08 04:42:52;;;;;;;4.90;3.80;;;6.90;99.90;;;;;;5015307;28;20657;-82
2021/05/08 04:45:18;;;;;;;5.80;5.10;;;6.90;99.90;;;;;;4997415;28;20800;-82
2021/05/08 04:47:44;;;;;;;3.93;3.60;;;7.00;99.90;;;;;;5014035;28;20173;-82
2021/05/08 04:50:10;;;;;;;5.30;4.80;;;7.00;99.90;;;;;;4996669;28;20170;-81
2021/05/08 04:52:36;;;;;;;4.25;3.80;;;7.00;99.90;;;;;;5014411;28;20205;-82
2021/05/08 04:55:02;;;;;;;5.27;4.77;;;7.10;99.90;;;;;;5018636;28;20191;-82
2021/05/08 04:57:27;;;;;;;5.40;4.90;;;7.20;99.90;;;;;;5025664;28;20184;-82
2021/05/08 04:59:53;;;;;;;4.07;3.77;;;7.20;99.90;;;;;;5033293;28;20617;-81
2021/05/08 05:02:19;;;;;;;5.33;4.83;;;7.30;99.90;;;;;;5029003;28;20178;-82
2021/05/08 05:04:44;;;;;;;5.40;4.07;;;7.40;99.90;;;;;;5026239;28;20182;-81
2021/05/08 05:07:10;;;;;;;4.57;3.70;;;7.40;99.90;;;;;;5009286;28;20170;-81
2021/05/08 05:09:36;;;;;;;4.47;4.07;;;7.50;99.90;;;;;;5012427;28;20212;-81
2021/05/08 05:12:04;;;;;;;5.63;4.00;;;7.60;99.90;;;;;;5012998;28;20470;-82
2021/05/08 05:14:30;;;;;;;3.85;3.50;;;7.80;99.90;;;;;;5014152;28;20225;-81
2021/05/08 05:16:56;;;;;;;5.33;4.70;;;7.90;99.90;;;;;;4994545;28;20167;-81
2021/05/08 05:19:21;;;;;;;4.70;4.30;;;7.90;99.90;;;;;;4985849;28;20283;-81
2021/05/08 05:21:47;;;;;;;4.40;4.00;;;8.00;99.90;;;;;;4986111;28;20181;-80
2021/05/08 05:24:13;;;;;;;4.77;4.33;;;8.00;99.90;;;;;;5004775;28;20195;-80
2021/05/08 05:26:39;;;;;;;5.70;4.38;;;8.10;99.90;;;;;;4991014;28;20170;-80
2021/05/08 05:29:09;;;;;;;4.53;4.17;;;8.10;99.90;;;;;;4961889;28;20583;-79
2021/05/08 05:31:35;;;;;;;4.72;3.60;;;8.20;99.90;;;;;;4998625;28;20943;-80
2021/05/08 05:34:00;;;;;;;4.63;3.80;;;8.40;99.90;;;;;;4965994;28;20205;-80
2021/05/08 05:36:27;;;;;;;6.50;4.00;;;8.50;99.90;;;;;;4987611;28;20605;-80
2021/05/08 05:38:53;;;;;;;4.07;3.55;;;8.70;99.90;;;;;;4982932;28;20174;-81
2021/05/08 05:41:18;;;;;;;5.40;4.27;;;9.00;99.90;;;;;;4994389;28;20205;-80
2021/05/08 05:43:44;;;;;;;4.50;4.10;;;9.40;99.90;;;;;;4993470;28;20537;-80
2021/05/08 05:46:10;;;;;;;4.33;3.83;;;9.90;99.90;;;;;;4975953;28;20213;-81
2021/05/08 05:48:35;;;;;;;3.63;3.33;;;10.70;99.90;;;;;;4975978;28;20175;-80
2021/05/08 05:51:01;;;;;;;3.40;2.70;;;11.30;99.90;;;;;;4976706;28;20171;-80
2021/05/08 05:53:27;;;;;;;3.10;2.80;;;11.90;99.90;;;;;;5007368;28;20210;-81
2021/05/08 05:55:52;;;;;;;3.50;3.10;;;12.40;99.90;;;;;;4960256;28;20195;-81
2021/05/08 05:58:18;;;;;;;4.13;3.40;;;12.90;99.90;;;;;;4993496;28;20186;-80
2021/05/08 06:00:44;;;;;;;3.77;3.47;;;13.30;99.90;;;;;;4960518;28;20340;-80
2021/05/08 06:03:09;;;;;;;3.33;2.70;;;13.70;99.30;;;;;;4977499;28;20253;-80
2021/05/08 06:05:35;;;;;;;2.80;2.60;;;14.10;99.50;;;;;;4976344;28;20199;-80
2021/05/08 06:08:01;;;;;;;3.33;2.17;;;14.80;98.90;;;;;;4996724;28;20174;-80
2021/05/08 06:10:27;;;;;;;2.50;1.80;;;15.40;98.30;;;;;;4994948;28;20666;-80
2021/05/08 06:12:52;;;;;;;2.20;1.80;;;16.00;98.70;;;;;;4995223;28;20313;-80
2021/05/08 06:15:18;;;;;;;3.13;2.17;;;16.80;98.70;;;;;;4994089;28;20658;-80
2021/05/08 06:17:44;;;;;;;3.37;1.73;;;17.50;96.50;;;;;;4994034;28;20175;-80
2021/05/08 06:20:10;;;;;;;3.13;2.80;;;18.00;95.70;;;;;;4993854;28;20572;-80
2021/05/08 06:22:36;;;;;;;2.97;2.40;;;18.30;93.90;;;;;;4995569;28;20235;-80
2021/05/08 06:25:03;;;;;;;2.60;2.40;;;18.50;92.90;;;;;;4983950;28;20625;-79
2021/05/08 06:27:28;;;;;;;2.00;1.70;;;18.40;88.40;;;;;;4985397;28;20171;-79
2021/05/08 06:29:54;;;;;;;2.20;1.90;;;18.50;90.20;;;;;;5000780;28;20587;-80
2021/05/08 06:32:20;;;;;;;2.83;2.17;;;18.70;89.80;;;;;;4996549;28;20187;-80
2021/05/08 06:34:46;;;;;;;3.83;2.37;;;18.90;89.40;;;;;;5012575;28;20996;-79
2021/05/08 06:37:11;;;;;;;2.87;2.03;;;19.00;82.30;;;;;;4981265;28;20175;-79
2021/05/08 06:39:37;;;;;;;2.50;2.00;;;19.20;84.40;;;;;;4980912;28;20213;-80
2021/05/08 06:42:03;;;;;;;2.10;1.70;;;19.40;82.50;;;;;;4979444;28;20231;-80
2021/05/08 06:44:28;;;;;;;2.63;2.00;;;19.50;82.70;;;;;;4975970;28;20196;-80
2021/05/08 06:46:55;;;;;;;3.40;2.37;;;19.60;81.40;;;;;;4979644;28;20647;-80
2021/05/08 06:49:21;;;;;;;2.50;1.80;;;19.40;78.30;;;;;;4979932;28;20268;-81
2021/05/08 06:51:46;;;;;;;3.00;1.90;;;19.40;79.30;;;;;;4979284;28;20599;-81
2021/05/08 06:54:12;;;;;;;3.77;2.13;;;19.30;77.90;;;;;;4988484;28;20622;-80
2021/05/08 06:56:38;;;;;;;4.47;2.83;;;19.10;75.50;;;;;;4983698;28;20201;-80
2021/05/08 06:59:04;;;;;;;2.97;1.50;;;18.90;73.70;;;;;;4982402;28;20254;-81
2021/05/08 07:01:30;;;;;;;2.97;2.00;;;18.80;75.20;;;;;;4980762;28;20190;-82
2021/05/08 07:03:56;;;;;;;3.40;2.20;;;18.80;75.40;;;;;;4977742;28;20179;-81
2021/05/08 07:06:25;;;;;;;2.60;2.10;;;18.50;73.40;;;;;;4977299;28;20579;-80
2021/05/08 07:08:51;;;;;;;3.90;2.20;;;18.40;74.00;;;;;;4973470;28;20617;-81
2021/05/08 07:11:17;;;;;;;2.90;2.03;;;18.20;72.70;;;;;;4981836;28;20721;-79
2021/05/08 07:13:43;;;;;;;3.97;2.30;;;17.70;68.40;;;;;;5002403;28;21077;-81
2021/05/08 07:16:09;;;;;;;2.80;2.17;;;17.20;69.40;;;;;;4981533;28;20589;-80
2021/05/08 07:18:35;;;;;;;2.80;2.60;;;16.70;68.50;;;;;;4988983;28;20174;-80
2021/05/08 07:21:04;;;;;;;3.63;2.43;;;16.30;69.60;;;;;;4994391;28;20585;-80
2021/05/08 07:23:30;;;;;;;4.03;2.20;;;16.00;69.90;;;;;;4963201;28;20577;-80
2021/05/08 07:25:56;;;;;;;2.80;2.60;;;15.80;70.70;;;;;;4974596;28;21012;-80
2021/05/08 07:28:26;;;;;;;3.73;2.17;;;15.50;70.30;;;;;;4998895;28;20185;-76
2021/05/08 07:30:54;;;;;;;2.63;2.07;;;15.30;71.70;;;;;;5011256;28;20170;-75
2021/05/08 07:33:27;;;;;;;3.93;2.60;;;15.10;72.20;;;;;;5011016;28;20566;-75
2021/05/08 07:35:52;;;;;;;2.53;2.33;;;15.00;72.10;;;;;;5010999;28;20682;-75
2021/05/08 07:38:19;;;;;;;2.90;2.33;;;14.90;73.00;;;;;;5010535;28;20620;-75
2021/05/08 07:40:48;;;;;;;3.00;2.67;;;14.80;73.50;;;;;;5010966;28;20190;-76
2021/05/08 07:43:16;;;;;;;3.28;2.42;;;14.70;73.50;;;;;;4977014;28;20581;-76
2021/05/08 07:45:41;;;;;;;5.90;3.38;;;14.70;74.50;;;;;;5004153;28;20197;-76
2021/05/08 07:48:07;;;;;;;5.70;3.00;;;14.70;73.80;;;;;;4992391;28;20175;-76
2021/05/08 07:50:34;;;;;;;3.38;2.20;;;14.60;74.10;;;;;;4974294;28;20183;-76
2021/05/08 07:53:00;;;;;;;3.03;2.83;;;14.70;75.70;;;;;;4957702;28;20178;-75
2021/05/08 07:55:26;;;;;;;2.17;1.97;;;14.80;75.70;;;;;;4973735;28;20653;-75
2021/05/08 07:57:52;;;;;;;5.75;2.72;;;14.90;76.50;;;;;;4992088;28;20574;-75
2021/05/08 08:00:20;;;;;;;3.70;2.50;;;15.00;76.60;;;;;;4982561;28;20218;-76
2021/05/08 08:02:45;;;;;;;3.50;2.77;;;15.10;75.90;;;;;;4977285;28;20919;-76
2021/05/08 08:05:12;;;;;;;4.20;2.30;;;15.20;76.70;;;;;;4989354;28;20602;-76
2021/05/08 08:07:38;;;;;;;4.20;3.13;;;15.30;76.50;;;;;;4975494;28;20963;-76
2021/05/08 08:10:06;;;;;;;3.23;2.70;;;15.60;77.90;;;;;;4975396;28;20585;-76
2021/05/08 08:12:32;;;;;;;3.10;2.20;;;15.80;78.10;;;;;;4975550;28;20563;-76
2021/05/08 08:14:58;;;;;;;6.50;2.73;;;16.00;78.40;;;;;;4957708;28;20626;-75
2021/05/08 08:17:24;;;;;;;3.03;2.50;;;16.30;79.30;;;;;;4985759;28;20676;-76
2021/05/08 08:19:50;;;;;;;3.47;2.50;;;16.40;77.00;;;;;;5014378;28;20206;-76
2021/05/08 08:22:17;;;;;;;3.70;2.90;;;16.40;75.50;;;;;;5013624;28;20171;-76
2021/05/08 08:24:43;;;;;;;2.63;1.93;;;16.50;75.20;;;;;;5012299;28;20585;-76
2021/05/08 08:27:10;;;;;;;2.73;2.07;;;16.60;75.60;;;;;;5012906;28;20616;-76
2021/05/08 08:29:36;;;;;;;2.70;2.03;;;16.70;75.70;;;;;;4996326;28;20557;-76
2021/05/08 08:32:03;;;;;;;3.53;2.37;;;16.80;73.70;;;;;;5014045;28;20569;-76
2021/05/08 08:34:29;;;;;;;4.43;2.37;;;16.90;73.70;;;;;;4996362;28;20612;-78
2021/05/08 08:36:54;;;;;;;2.53;1.63;;;17.00;73.20;;;;;;5000648;28;20946;-76
2021/05/08 08:39:20;;;;;;;3.20;2.10;;;17.10;73.80;;;;;;5013786;28;20198;-76
2021/05/08 08:41:46;;;;;;;3.07;2.23;;;17.20;72.60;;;;;;4997386;28;20225;-76
2021/05/08 08:44:12;;;;;;;2.47;1.87;;;17.30;69.90;;;;;;4965502;28;20186;-76
2021/05/08 08:46:42;;;;;;;4.20;3.10;;;17.40;71.30;;;;;;5013639;28;20170;-77
2021/05/08 08:49:08;;;;;;;3.13;1.90;;;17.70;72.90;;;;;;5014102;28;20175;-77
2021/05/08 08:51:35;;;;;;;2.63;1.30;;;18.10;73.90;;;;;;4979903;28;20626;-77
2021/05/08 08:54:02;;;;;;;2.23;1.83;;;18.50;74.70;;;;;;4995740;28;20616;-77
2021/05/08 08:56:39;;;;;;;2.67;1.50;;;18.70;72.00;;;;;;4995676;28;21132;-77
2021/05/08 08:59:19;;;;;;;3.33;2.10;;;18.70;69.70;;;;;;4995814;28;20631;-77
2021/05/08 09:01:46;;;;;;;2.37;1.60;;;18.80;70.00;;;;;;5013472;28;20596;-77
2021/05/08 09:04:16;;;;;;;2.27;1.57;;;18.80;67.70;;;;;;4979517;28;20601;-77
2021/05/08 09:06:45;;;;;;;2.50;1.30;;;18.80;67.40;;;;;;5013374;28;20597;-77
2021/05/08 09:09:11;;;;;;;2.73;1.40;;;18.60;66.70;;;;;;4995419;28;20577;-77
2021/05/08 09:11:54;;;;;;;4.97;1.90;;;18.50;66.40;;;;;;4996133;28;20617;-77
2021/05/08 09:14:26;;;;;;;2.37;1.40;;;18.50;61.10;;;;;;5002290;28;20608;-77
2021/05/08 09:17:08;;;;;;;3.20;1.50;;;18.60;65.40;;;;;;5013426;28;20561;-77
2021/05/08 09:19:40;;;;;;;2.30;1.33;;;18.70;66.60;;;;;;4995633;28;20656;-77
2021/05/08 09:22:23;;;;;;;4.40;1.90;;;19.00;67.10;;;;;;4995920;28;20574;-77
2021/05/08 09:24:59;;;;;;;3.40;2.03;;;19.30;62.60;;;;;;5013059;28;20612;-77
2021/05/08 09:27:35;;;;;;;2.87;1.83;;;19.80;61.70;;;;;;4995146;28;20584;-77
2021/05/08 09:30:09;;;;;;;2.30;1.50;;;20.30;66.30;;;;;;5013002;28;21626;-77
2021/05/08 09:32:40;;;;;;;2.07;1.17;;;21.00;67.60;;;;;;4979459;28;20581;-77
2021/05/08 09:35:08;;;;;;;3.43;2.23;;;21.70;67.20;;;;;;4995043;28;20609;-77
2021/05/08 09:37:35;;;;;;;3.83;2.27;;;22.30;61.30;;;;;;5012762;28;20588;-77
2021/05/08 09:40:31;;;;;;;2.30;1.43;;;22.50;56.50;;;;;;4978925;28;20623;-77
2021/05/08 09:42:58;;;;;;;1.97;1.53;;;22.90;60.00;;;;;;4996481;28;21023;-77
2021/05/08 09:45:26;;;;;;;3.00;1.40;;;23.30;56.80;;;;;;5013000;28;20609;-77
2021/05/08 09:47:52;;;;;;;3.97;1.80;;;23.20;54.60;;;;;;5012346;28;20574;-77
2021/05/08 09:50:25;;;;;;;4.33;1.73;;;23.20;53.40;;;;;;5018836;28;20557;-77
2021/05/08 09:52:53;;;;;;;2.23;1.37;;;23.10;51.90;;;;;;4995977;28;20561;-77
2021/05/08 09:55:22;;;;;;;2.57;1.53;;;23.20;51.30;;;;;;5012716;28;20599;-77
2021/05/08 09:58:00;;;;;;;3.40;1.60;;;23.10;50.90;;;;;;4994602;28;20944;-77
2021/05/08 10:00:39;;;;;;;2.00;1.00;;;23.00;51.00;;;;;;4995095;28;20612;-77
2021/05/08 10:03:11;;;;;;;3.00;0.90;;;23.00;52.30;;;;;;5012602;28;20561;-77
2021/05/08 10:05:41;;;;;;;3.20;1.10;;;23.20;52.80;;;;;;5014826;28;20593;-76
2021/05/08 10:08:08;;;;;;;2.00;1.37;;;23.40;53.10;;;;;;4977932;28;20574;-76
2021/05/08 10:10:35;;;;;;;1.60;1.00;;;23.70;50.80;;;;;;5012654;28;20572;-77
2021/05/08 10:13:09;;;;;;;3.43;1.20;;;23.50;49.40;;;;;;5013244;28;20574;-77
2021/05/08 10:15:36;;;;;;;2.23;1.10;;;23.40;47.80;;;;;;4994979;28;20620;-77
2021/05/08 10:18:08;;;;;;;2.33;0.87;;;23.30;49.10;;;;;;5002227;28;20589;-77
2021/05/08 10:20:35;;;;;;;2.03;1.07;;;23.40;47.90;;;;;;4993021;28;20610;-77
2021/05/08 10:23:08;;;;;;;2.50;1.43;;;23.60;50.20;;;;;;4993144;28;20562;-77
2021/05/08 10:25:38;;;;;;;2.20;1.23;;;23.60;45.90;;;;;;4993359;28;20616;-77
2021/05/08 10:28:05;;;;;;;1.70;0.90;;;23.30;46.20;;;;;;4998091;28;20578;-77
2021/05/08 10:30:34;;;;;;;1.67;0.83;;;23.20;47.60;;;;;;4975539;28;20566;-77
2021/05/08 10:33:00;;;;;;;1.70;1.00;;;23.40;48.80;;;;;;4975315;28;20581;-77
2021/05/08 10:35:52;;;;;;;1.60;0.90;;;23.80;50.00;;;;;;4975504;28;21170;-77
2021/05/08 10:38:23;;;;;;;1.90;0.90;;;24.10;47.90;;;;;;4983666;28;20959;-77
2021/05/08 10:41:02;;;;;;;1.30;0.70;;;24.30;47.60;;;;;;4958499;28;21208;-77
2021/05/08 10:43:41;;;;;;;1.97;0.90;;;24.10;47.20;;;;;;4975082;28;20569;-77
2021/05/08 10:46:08;;;;;;;2.57;0.80;;;24.20;46.60;;;;;;4991990;28;20582;-77
2021/05/08 10:48:35;;;;;;;2.30;0.70;;;24.10;46.90;;;;;;4991730;28;20923;-77
2021/05/08 10:51:01;;;;;;;1.30;0.80;;;24.00;46.60;;;;;;4974493;28;20582;-77
2021/05/08 10:53:39;;;;;;;2.20;1.07;;;23.80;46.30;;;;;;4992065;28;20574;-77
2021/05/08 10:56:06;;;;;;;1.50;0.80;;;23.90;46.60;;;;;;4992013;28;20583;-77
2021/05/08 10:58:36;;;;;;;1.70;0.83;;;24.00;44.80;;;;;;4974444;28;20570;-77
2021/05/08 11:01:11;;;;;;;1.40;0.80;;;23.70;45.30;;;;;;4991872;28;20640;-77
2021/05/08 11:03:45;;;;;;;1.40;0.77;;;23.50;44.50;;;;;;4974712;28;20561;-77
2021/05/08 11:06:11;;;;;;;1.57;0.70;;;23.30;44.00;;;;;;4979218;28;20574;-77
2021/05/08 11:08:37;;;;;;;1.97;1.00;;;23.00;43.00;;;;;;4991366;28;21129;-77
2021/05/08 11:11:12;;;;;;;2.70;0.90;;;22.60;43.20;;;;;;4974291;28;20179;-77
2021/05/08 11:13:40;;;;;;;2.10;0.70;;;22.20;43.00;;;;;;4974117;28;20171;-77
2021/05/08 11:16:07;;;;;;;1.40;0.73;;;22.00;43.70;;;;;;4974192;28;20934;-77
2021/05/08 11:21:12;;;;;;;1.90;0.90;;;21.50;43.60;;;;;;4994298;28;20624;-76
2021/05/08 11:23:52;;;;;;;1.60;0.70;;;21.30;44.00;;;;;;4993727;28;20265;-76
2021/05/08 11:26:27;;;;;;;1.33;0.70;;;21.20;44.80;;;;;;5011592;28;20660;-76
2021/05/08 11:28:58;;;;;;;3.10;0.70;;;21.20;44.60;;;;;;5011186;28;20564;-76
2021/05/08 11:31:29;;;;;;;1.87;0.60;;;21.10;45.10;;;;;;4994163;28;20553;-76
2021/05/08 11:34:06;;;;;;;1.20;0.60;;;21.10;45.70;;;;;;5014990;28;21231;-76
2021/05/08 11:36:40;;;;;;;1.40;0.60;;;21.20;46.20;;;;;;4997164;28;20560;-76
2021/05/08 11:39:08;;;;;;;1.93;0.60;;;21.20;46.40;;;;;;5014804;28;20674;-78
2021/05/08 11:41:34;;;;;;;1.10;0.50;;;21.30;46.60;;;;;;5019358;28;20645;-75
2021/05/08 11:43:59;;;;;;;1.10;0.50;;;21.30;46.90;;;;;;4981599;28;20629;-78
2021/05/08 11:46:30;;;;;;;1.27;0.63;;;21.30;47.10;;;;;;5014825;28;20600;-77
2021/05/08 11:48:56;;;;;;;1.13;0.60;;;21.40;47.30;;;;;;5014566;28;20170;-76
2021/05/08 11:51:22;;;;;;;1.10;0.50;;;21.20;47.20;;;;;;5014946;28;20565;-76
2021/05/08 11:54:05;;;;;;;1.60;0.60;;;21.00;47.00;;;;;;4997443;28;20619;-77
2021/05/08 11:56:31;;;;;;;2.27;0.70;;;20.80;47.10;;;;;;5014307;28;20170;-76
2021/05/08 11:58:57;;;;;;;1.27;0.60;;;20.60;47.20;;;;;;5014667;28;20597;-76
2021/05/08 12:01:22;;;;;;;1.10;0.50;;;20.30;47.40;;;;;;4997108;28;20696;-77
2021/05/08 12:03:58;;;;;;;1.30;0.60;;;20.10;47.70;;;;;;5014449;28;20163;-76
2021/05/08 12:06:25;;;;;;;2.50;0.60;;;20.00;48.20;;;;;;5014977;28;20646;-76
2021/05/08 12:08:52;;;;;;;4.10;0.70;;;19.90;48.20;;;;;;4980821;28;20561;-78
2021/05/08 12:11:19;;;;;;;1.90;0.73;;;19.70;48.20;;;;;;4996579;28;20948;-76
2021/05/08 12:13:45;;;;;;;1.73;0.70;;;19.60;48.00;;;;;;4996822;28;20580;-76
2021/05/08 12:16:12;;;;;;;3.23;0.60;;;19.50;48.40;;;;;;5014625;28;20597;-78
2021/05/08 12:18:41;;;;;;;1.40;0.70;;;19.50;48.50;;;;;;4985833;28;20661;-77
2021/05/08 12:21:11;;;;;;;1.67;0.50;;;19.50;48.80;;;;;;4997504;28;20618;-77
2021/05/08 12:23:38;;;;;;;1.27;0.53;;;19.50;48.40;;;;;;4978113;28;20581;-76
2021/05/08 12:26:16;;;;;;;2.30;0.77;;;19.50;48.80;;;;;;4995836;28;20660;-77
2021/05/08 12:28:49;;;;;;;1.20;0.60;;;19.40;48.10;;;;;;4975022;28;20685;-77
2021/05/08 12:31:19;;;;;;;2.20;0.70;;;19.40;48.60;;;;;;4959311;28;20637;-78
2021/05/08 12:33:45;;;;;;;1.50;0.60;;;19.30;48.50;;;;;;4985185;28;20703;-77
2021/05/08 12:36:15;;;;;;;1.30;0.70;;;19.40;49.20;;;;;;5014246;28;20994;-78
2021/05/08 12:38:42;;;;;;;1.40;0.63;;;19.50;49.60;;;;;;4976629;28;20586;-78
2021/05/08 12:41:28;;;;;;;1.43;0.60;;;19.60;49.90;;;;;;4977036;28;21187;-77
2021/05/08 12:44:03;;;;;;;1.70;0.70;;;19.60;49.80;;;;;;4959957;28;20568;-77
2021/05/08 12:46:58;;;;;;;1.53;0.60;;;19.70;49.90;;;;;;4990149;28;21211;-78
2021/05/08 12:49:27;;;;;;;1.50;0.70;;;19.70;49.60;;;;;;4996439;28;20566;-78
2021/05/08 12:51:54;;;;;;;1.40;0.60;;;19.70;49.50;;;;;;5013949;28;20569;-78
2021/05/08 12:54:25;;;;;;;1.63;0.70;;;19.60;49.60;;;;;;5014223;28;20593;-78
2021/05/08 12:57:07;;;;;;;1.40;0.60;;;19.60;49.80;;;;;;4984757;28;20665;-78